sensor_id;sensor_type;location;lat;lon;timestamp;pressure;altitude;pressure_sealevel;temperature;humidity
17781;BME280;8498;52.516;13.790;2022-11-20T00:00:51;100646.16;;;2.59;90.93
17781;BME280;8498;52.516;13.790;2022-11-20T00:06:16;100635.53;;;2.39;90.82
17781;BME280;8498;52.516;13.790;2022-11-20T00:11:38;100631.75;;;2.46;90.81
17781;BME280;8498;52.516;13.790;2022-11-20T00:17:01;100631.75;;;2.46;90.64
17781;BME280;8498;52.516;13.790;2022-11-20T00:22:23;100629.66;;;2.55;90.23
17781;BME280;8498;52.516;13.790;2022-11-20T00:27:45;100631.81;;;2.44;89.97
17781;BME280;8498;52.516;13.790;2022-11-20T00:33:08;100634.84;;;2.57;89.83
17781;BME280;8498;52.516;13.790;2022-11-20T00:38:31;100621.94;;;2.51;89.67
17781;BME280;8498;52.516;13.790;2022-11-20T00:43:54;100630.66;;;2.51;89.99
17781;BME280;8498;52.516;13.790;2022-11-20T00:49:17;100634.72;;;2.60;89.62
17781;BME280;8498;52.516;13.790;2022-11-20T00:54:40;100637.69;;;2.51;89.92
17781;BME280;8498;52.516;13.790;2022-11-20T01:00:02;100640.78;;;2.62;89.37
17781;BME280;8498;52.516;13.790;2022-11-20T01:05:25;100641.00;;;2.56;89.71
17781;BME280;8498;52.516;13.790;2022-11-20T01:10:47;100636.81;;;2.50;89.52
17781;BME280;8498;52.516;13.790;2022-11-20T01:16:16;100638.72;;;2.47;89.72
17781;BME280;8498;52.516;13.790;2022-11-20T01:21:41;100638.81;;;2.44;89.17
17781;BME280;8498;52.516;13.790;2022-11-20T01:27:03;100629.13;;;2.46;89.37
17781;BME280;8498;52.516;13.790;2022-11-20T01:32:26;100619.78;;;2.39;89.47
17781;BME280;8498;52.516;13.790;2022-11-20T01:37:49;100625.09;;;2.37;89.40
17781;BME280;8498;52.516;13.790;2022-11-20T01:43:16;100617.91;;;2.42;89.26
17781;BME280;8498;52.516;13.790;2022-11-20T01:54:15;100618.75;;;2.43;89.23
17781;BME280;8498;52.516;13.790;2022-11-20T01:59:44;100614.06;;;2.28;89.55
17781;BME280;8498;52.516;13.790;2022-11-20T02:05:33;100617.38;;;2.33;89.55
17781;BME280;8498;52.516;13.790;2022-11-20T02:10:57;100606.22;;;2.28;89.55
17781;BME280;8498;52.516;13.790;2022-11-20T02:16:25;100603.88;;;2.18;89.32
17781;BME280;8498;52.516;13.790;2022-11-20T02:27:41;100597.63;;;2.22;89.18
17781;BME280;8498;52.516;13.790;2022-11-20T02:33:04;100597.09;;;2.38;88.84
17781;BME280;8498;52.516;13.790;2022-11-20T02:38:26;100594.31;;;2.42;88.29
17781;BME280;8498;52.516;13.790;2022-11-20T02:43:48;100600.84;;;2.31;88.68
17781;BME280;8498;52.516;13.790;2022-11-20T02:49:11;100605.97;;;2.34;88.48
17781;BME280;8498;52.516;13.790;2022-11-20T02:54:33;100586.63;;;2.38;88.23
17781;BME280;8498;52.516;13.790;2022-11-20T02:59:56;100579.44;;;2.43;87.94
17781;BME280;8498;52.516;13.790;2022-11-20T03:05:18;100584.72;;;2.41;88.37
17781;BME280;8498;52.516;13.790;2022-11-20T03:10:40;100579.19;;;2.26;88.71
17781;BME280;8498;52.516;13.790;2022-11-20T03:16:07;100578.09;;;2.31;88.42
17781;BME280;8498;52.516;13.790;2022-11-20T03:21:32;100572.59;;;2.39;87.44
17781;BME280;8498;52.516;13.790;2022-11-20T03:26:55;100575.38;;;2.34;87.56
17781;BME280;8498;52.516;13.790;2022-11-20T03:32:17;100573.94;;;2.26;88.06
17781;BME280;8498;52.516;13.790;2022-11-20T03:37:40;100570.38;;;2.28;87.90
17781;BME280;8498;52.516;13.790;2022-11-20T03:43:02;100573.72;;;2.32;87.27
17781;BME280;8498;52.516;13.790;2022-11-20T03:48:24;100570.94;;;2.36;87.20
17781;BME280;8498;52.516;13.790;2022-11-20T03:53:48;100571.00;;;2.35;87.16
17781;BME280;8498;52.516;13.790;2022-11-20T03:59:11;100564.94;;;2.33;87.08
17781;BME280;8498;52.516;13.790;2022-11-20T04:04:34;100564.41;;;2.23;86.86
17781;BME280;8498;52.516;13.790;2022-11-20T04:09:56;100565.31;;;2.22;87.12
17781;BME280;8498;52.516;13.790;2022-11-20T04:15:18;100564.66;;;2.17;87.21
17781;BME280;8498;52.516;13.790;2022-11-20T04:20:41;100563.56;;;2.22;87.25
17781;BME280;8498;52.516;13.790;2022-11-20T04:26:07;100562.66;;;2.24;86.84
17781;BME280;8498;52.516;13.790;2022-11-20T04:31:32;100563.84;;;2.15;87.11
17781;BME280;8498;52.516;13.790;2022-11-20T04:36:55;100556.41;;;2.28;86.87
17781;BME280;8498;52.516;13.790;2022-11-20T04:42:17;100563.00;;;2.14;86.54
17781;BME280;8498;52.516;13.790;2022-11-20T04:47:52;100559.78;;;2.06;86.55
17781;BME280;8498;52.516;13.790;2022-11-20T04:53:14;100557.84;;;2.11;86.31
17781;BME280;8498;52.516;13.790;2022-11-20T04:58:37;100544.66;;;2.14;86.21
17781;BME280;8498;52.516;13.790;2022-11-20T05:04:00;100541.06;;;2.17;86.09
17781;BME280;8498;52.516;13.790;2022-11-20T05:09:22;100546.56;;;2.09;86.22
17781;BME280;8498;52.516;13.790;2022-11-20T05:14:45;100542.13;;;2.11;86.26
17781;BME280;8498;52.516;13.790;2022-11-20T05:20:07;100541.22;;;2.12;86.46
17781;BME280;8498;52.516;13.790;2022-11-20T05:25:30;100531.53;;;2.14;85.51
17781;BME280;8498;52.516;13.790;2022-11-20T05:30:53;100534.25;;;2.11;85.83
17781;BME280;8498;52.516;13.790;2022-11-20T05:36:17;100524.22;;;1.99;85.73
17781;BME280;8498;52.516;13.790;2022-11-20T05:41:39;100526.72;;;2.02;85.95
17781;BME280;8498;52.516;13.790;2022-11-20T05:47:01;100535.16;;;2.10;86.09
17781;BME280;8498;52.516;13.790;2022-11-20T05:52:24;100528.22;;;2.09;85.32
17781;BME280;8498;52.516;13.790;2022-11-20T05:57:46;100524.53;;;2.15;85.14
17781;BME280;8498;52.516;13.790;2022-11-20T06:03:08;100515.72;;;2.17;85.90
17781;BME280;8498;52.516;13.790;2022-11-20T06:08:31;100516.69;;;2.15;85.98
17781;BME280;8498;52.516;13.790;2022-11-20T06:13:54;100516.28;;;2.26;85.73
17781;BME280;8498;52.516;13.790;2022-11-20T06:19:16;100517.63;;;2.12;85.64
17781;BME280;8498;52.516;13.790;2022-11-20T06:24:39;100515.06;;;2.11;86.04
17781;BME280;8498;52.516;13.790;2022-11-20T06:30:01;100513.41;;;2.08;85.87
17781;BME280;8498;52.516;13.790;2022-11-20T06:35:23;100522.97;;;2.09;86.23
17781;BME280;8498;52.516;13.790;2022-11-20T06:40:45;100525.50;;;2.12;85.56
17781;BME280;8498;52.516;13.790;2022-11-20T06:46:10;100515.59;;;2.20;85.71
17781;BME280;8498;52.516;13.790;2022-11-20T06:51:33;100514.69;;;2.21;85.61
17781;BME280;8498;52.516;13.790;2022-11-20T06:56:55;100523.34;;;2.24;85.84
17781;BME280;8498;52.516;13.790;2022-11-20T07:02:17;100511.94;;;2.25;85.39
17781;BME280;8498;52.516;13.790;2022-11-20T07:07:39;100518.66;;;2.32;85.66
17781;BME280;8498;52.516;13.790;2022-11-20T07:13:02;100516.16;;;2.29;84.92
17781;BME280;8498;52.516;13.790;2022-11-20T07:18:24;100510.81;;;2.32;85.29
17781;BME280;8498;52.516;13.790;2022-11-20T07:23:47;100506.72;;;2.25;85.03
17781;BME280;8498;52.516;13.790;2022-11-20T07:29:09;100494.41;;;2.27;85.46
17781;BME280;8498;52.516;13.790;2022-11-20T07:34:32;100498.91;;;2.23;85.45
17781;BME280;8498;52.516;13.790;2022-11-20T07:39:54;100505.25;;;2.17;84.97
17781;BME280;8498;52.516;13.790;2022-11-20T07:45:20;100503.06;;;2.29;84.91
17781;BME280;8498;52.516;13.790;2022-11-20T07:50:43;100496.00;;;2.31;84.65
17781;BME280;8498;52.516;13.790;2022-11-20T07:56:06;100503.63;;;2.13;84.65
17781;BME280;8498;52.516;13.790;2022-11-20T08:01:29;100499.19;;;2.15;84.74
17781;BME280;8498;52.516;13.790;2022-11-20T08:06:54;100501.81;;;2.15;84.50
17781;BME280;8498;52.516;13.790;2022-11-20T08:12:20;100495.16;;;2.07;84.59
17781;BME280;8498;52.516;13.790;2022-11-20T08:23:47;100489.31;;;2.22;84.16
17781;BME280;8498;52.516;13.790;2022-11-20T08:29:09;100482.63;;;2.38;84.02
17781;BME280;8498;52.516;13.790;2022-11-20T08:34:31;100484.50;;;2.35;83.68
17781;BME280;8498;52.516;13.790;2022-11-20T08:39:53;100472.75;;;2.45;83.40
17781;BME280;8498;52.516;13.790;2022-11-20T08:45:19;100473.16;;;2.34;83.26
17781;BME280;8498;52.516;13.790;2022-11-20T08:50:42;100469.66;;;2.34;83.15
17781;BME280;8498;52.516;13.790;2022-11-20T08:56:05;100472.91;;;2.40;83.21
17781;BME280;8498;52.516;13.790;2022-11-20T09:01:29;100476.28;;;2.20;83.39
17781;BME280;8498;52.516;13.790;2022-11-20T09:06:52;100469.22;;;2.46;83.32
17781;BME280;8498;52.516;13.790;2022-11-20T09:12:15;100468.59;;;2.61;83.11
17781;BME280;8498;52.516;13.790;2022-11-20T09:17:37;100480.81;;;2.62;82.76
17781;BME280;8498;52.516;13.790;2022-11-20T09:22:59;100464.09;;;2.65;83.29
17781;BME280;8498;52.516;13.790;2022-11-20T09:28:21;100472.56;;;2.49;83.27
17781;BME280;8498;52.516;13.790;2022-11-20T09:33:44;100476.56;;;2.60;82.99
17781;BME280;8498;52.516;13.790;2022-11-20T09:39:06;100472.03;;;2.63;82.79
17781;BME280;8498;52.516;13.790;2022-11-20T09:50:57;100469.84;;;2.74;81.97
17781;BME280;8498;52.516;13.790;2022-11-20T09:56:23;100477.66;;;2.76;82.17
17781;BME280;8498;52.516;13.790;2022-11-20T10:01:45;100468.63;;;2.83;80.99
17781;BME280;8498;52.516;13.790;2022-11-20T10:07:14;100454.91;;;2.76;80.77
17781;BME280;8498;52.516;13.790;2022-11-20T10:13:12;100460.59;;;2.87;79.96
17781;BME280;8498;52.516;13.790;2022-11-20T10:24:24;100446.41;;;2.48;81.05
17781;BME280;8498;52.516;13.790;2022-11-20T10:30:11;100442.81;;;2.72;80.52
17781;BME280;8498;52.516;13.790;2022-11-20T10:35:42;100449.34;;;3.06;79.80
17781;BME280;8498;52.516;13.790;2022-11-20T10:41:11;100444.00;;;2.87;79.13
17781;BME280;8498;52.516;13.790;2022-11-20T10:46:47;100428.59;;;3.00;79.23
17781;BME280;8498;52.516;13.790;2022-11-20T11:03:26;100433.13;;;2.74;79.27
17781;BME280;8498;52.516;13.790;2022-11-20T11:08:51;100425.69;;;2.85;79.23
17781;BME280;8498;52.516;13.790;2022-11-20T11:14:15;100428.25;;;2.87;79.48
17781;BME280;8498;52.516;13.790;2022-11-20T11:19:37;100429.91;;;2.89;79.86
17781;BME280;8498;52.516;13.790;2022-11-20T11:25:00;100425.44;;;3.12;79.32
17781;BME280;8498;52.516;13.790;2022-11-20T11:30:24;100414.66;;;3.19;80.45
17781;BME280;8498;52.516;13.790;2022-11-20T11:35:49;100413.53;;;3.45;79.92
17781;BME280;8498;52.516;13.790;2022-11-20T11:41:23;100410.19;;;3.21;79.86
17781;BME280;8498;52.516;13.790;2022-11-20T11:46:54;100396.03;;;3.64;80.11
17781;BME280;8498;52.516;13.790;2022-11-20T11:52:18;100396.06;;;3.44;79.68
17781;BME280;8498;52.516;13.790;2022-11-20T11:57:49;100395.63;;;3.35;80.21
17781;BME280;8498;52.516;13.790;2022-11-20T12:03:35;100391.66;;;3.04;80.58
17781;BME280;8498;52.516;13.790;2022-11-20T12:09:05;100391.22;;;3.15;81.04
17781;BME280;8498;52.516;13.790;2022-11-20T12:14:35;100385.97;;;3.15;80.34
17781;BME280;8498;52.516;13.790;2022-11-20T12:19:59;100388.75;;;3.32;80.36
17781;BME280;8498;52.516;13.790;2022-11-20T12:25:22;100390.97;;;3.21;80.63
17781;BME280;8498;52.516;13.790;2022-11-20T12:36:56;100375.97;;;3.43;80.48
17781;BME280;8498;52.516;13.790;2022-11-20T13:05:18;100361.00;;;3.45;81.63
17781;BME280;8498;52.516;13.790;2022-11-20T13:21:49;100341.00;;;3.22;81.85
17781;BME280;8498;52.516;13.790;2022-11-20T13:32:35;100320.41;;;3.13;81.79
17781;BME280;8498;52.516;13.790;2022-11-20T13:38:07;100320.63;;;3.09;81.36
17781;BME280;8498;52.516;13.790;2022-11-20T13:43:40;100323.84;;;3.15;80.99
17781;BME280;8498;52.516;13.790;2022-11-20T14:00:22;100315.00;;;2.98;81.62
17781;BME280;8498;52.516;13.790;2022-11-20T14:05:55;100317.72;;;3.15;81.75
17781;BME280;8498;52.516;13.790;2022-11-20T14:11:23;100322.47;;;3.07;82.47
17781;BME280;8498;52.516;13.790;2022-11-20T14:16:47;100305.81;;;3.08;82.99
17781;BME280;8498;52.516;13.790;2022-11-20T14:22:30;100309.91;;;3.13;83.51
17781;BME280;8498;52.516;13.790;2022-11-20T14:27:54;100317.22;;;3.07;84.08
17781;BME280;8498;52.516;13.790;2022-11-20T14:33:18;100322.06;;;3.16;84.12
17781;BME280;8498;52.516;13.790;2022-11-20T14:38:42;100317.25;;;3.25;83.84
17781;BME280;8498;52.516;13.790;2022-11-20T14:44:04;100307.50;;;3.09;84.66
17781;BME280;8498;52.516;13.790;2022-11-20T14:49:29;100307.59;;;3.46;85.98
17781;BME280;8498;52.516;13.790;2022-11-20T14:54:57;100304.78;;;3.88;83.20
17781;BME280;8498;52.516;13.790;2022-11-20T15:00:23;100304.81;;;3.49;83.48
17781;BME280;8498;52.516;13.790;2022-11-20T15:05:48;100304.75;;;3.32;84.11
17781;BME280;8498;52.516;13.790;2022-11-20T15:11:32;100300.66;;;3.83;85.95
17781;BME280;8498;52.516;13.790;2022-11-20T15:16:55;100308.88;;;3.75;83.39
17781;BME280;8498;52.516;13.790;2022-11-20T15:22:17;100307.31;;;3.52;84.03
17781;BME280;8498;52.516;13.790;2022-11-20T15:27:40;100299.34;;;3.54;83.95
17781;BME280;8498;52.516;13.790;2022-11-20T15:33:03;100299.06;;;3.41;84.31
17781;BME280;8498;52.516;13.790;2022-11-20T15:38:26;100299.19;;;3.38;84.45
17781;BME280;8498;52.516;13.790;2022-11-20T15:43:49;100305.19;;;3.42;84.56
17781;BME280;8498;52.516;13.790;2022-11-20T15:49:14;100297.13;;;3.45;84.37
17781;BME280;8498;52.516;13.790;2022-11-20T15:54:37;100299.78;;;3.63;84.99
17781;BME280;8498;52.516;13.790;2022-11-20T15:59:59;100300.50;;;3.86;83.80
17781;BME280;8498;52.516;13.790;2022-11-20T16:05:22;100299.94;;;3.60;83.27
17781;BME280;8498;52.516;13.790;2022-11-20T16:10:45;100305.75;;;3.48;83.28
17781;BME280;8498;52.516;13.790;2022-11-20T16:16:14;100292.13;;;3.40;83.80
17781;BME280;8498;52.516;13.790;2022-11-20T16:21:41;100290.41;;;3.39;83.42
17781;BME280;8498;52.516;13.790;2022-11-20T16:27:04;100288.69;;;3.38;83.43
17781;BME280;8498;52.516;13.790;2022-11-20T16:32:26;100284.31;;;3.39;83.72
17781;BME280;8498;52.516;13.790;2022-11-20T16:37:48;100288.81;;;3.35;83.52
17781;BME280;8498;52.516;13.790;2022-11-20T16:43:15;100284.44;;;3.36;83.11
17781;BME280;8498;52.516;13.790;2022-11-20T16:48:38;100273.78;;;3.20;83.32
17781;BME280;8498;52.516;13.790;2022-11-20T16:54:02;100285.16;;;3.00;83.71
17781;BME280;8498;52.516;13.790;2022-11-20T16:59:25;100291.25;;;3.01;83.89
17781;BME280;8498;52.516;13.790;2022-11-20T17:04:47;100294.63;;;3.03;84.07
17781;BME280;8498;52.516;13.790;2022-11-20T17:10:09;100289.72;;;2.95;84.09
17781;BME280;8498;52.516;13.790;2022-11-20T17:15:32;100292.28;;;2.76;84.63
17781;BME280;8498;52.516;13.790;2022-11-20T17:20:54;100298.63;;;2.71;85.64
17781;BME280;8498;52.516;13.790;2022-11-20T17:26:19;100299.25;;;2.77;85.51
17781;BME280;8498;52.516;13.790;2022-11-20T17:31:43;100298.19;;;2.81;85.42
17781;BME280;8498;52.516;13.790;2022-11-20T17:37:06;100294.50;;;2.85;85.22
17781;BME280;8498;52.516;13.790;2022-11-20T17:42:28;100285.06;;;2.81;84.99
17781;BME280;8498;52.516;13.790;2022-11-20T17:47:51;100287.56;;;2.84;85.06
17781;BME280;8498;52.516;13.790;2022-11-20T17:53:13;100288.22;;;2.89;84.39
17781;BME280;8498;52.516;13.790;2022-11-20T17:58:36;100289.09;;;2.90;84.16
17781;BME280;8498;52.516;13.790;2022-11-20T18:03:59;100274.56;;;3.02;83.22
17781;BME280;8498;52.516;13.790;2022-11-20T18:09:21;100281.31;;;3.65;86.99
17781;BME280;8498;52.516;13.790;2022-11-20T18:14:43;100267.88;;;3.73;82.07
17781;BME280;8498;52.516;13.790;2022-11-20T18:20:06;100262.31;;;3.41;81.27
17781;BME280;8498;52.516;13.790;2022-11-20T18:25:50;100262.88;;;3.29;82.10
17781;BME280;8498;52.516;13.790;2022-11-20T18:31:12;100247.13;;;3.29;82.43
17781;BME280;8498;52.516;13.790;2022-11-20T18:36:35;100252.78;;;3.20;82.32
17781;BME280;8498;52.516;13.790;2022-11-20T18:41:57;100238.81;;;3.19;82.70
17781;BME280;8498;52.516;13.790;2022-11-20T18:47:38;100245.59;;;3.23;82.41
17781;BME280;8498;52.516;13.790;2022-11-20T18:53:01;100238.88;;;3.18;81.97
17781;BME280;8498;52.516;13.790;2022-11-20T18:58:24;100241.13;;;3.07;81.99
17781;BME280;8498;52.516;13.790;2022-11-20T19:03:46;100240.63;;;3.17;82.33
17781;BME280;8498;52.516;13.790;2022-11-20T19:09:10;100245.22;;;3.12;81.73
17781;BME280;8498;52.516;13.790;2022-11-20T19:14:33;100238.97;;;2.96;81.86
17781;BME280;8498;52.516;13.790;2022-11-20T19:19:56;100237.91;;;3.00;81.89
17781;BME280;8498;52.516;13.790;2022-11-20T19:25:18;100237.81;;;3.02;81.76
17781;BME280;8498;52.516;13.790;2022-11-20T19:30:41;100236.63;;;2.90;81.38
17781;BME280;8498;52.516;13.790;2022-11-20T19:36:16;100241.00;;;2.89;81.65
17781;BME280;8498;52.516;13.790;2022-11-20T19:41:40;100238.91;;;2.77;81.63
17781;BME280;8498;52.516;13.790;2022-11-20T19:47:03;100245.53;;;2.66;81.63
17781;BME280;8498;52.516;13.790;2022-11-20T19:52:32;100247.38;;;2.64;81.80
17781;BME280;8498;52.516;13.790;2022-11-20T19:57:55;100241.66;;;2.54;82.13
17781;BME280;8498;52.516;13.790;2022-11-20T20:03:17;100242.13;;;3.23;84.02
17781;BME280;8498;52.516;13.790;2022-11-20T20:08:41;100240.34;;;2.84;80.86
17781;BME280;8498;52.516;13.790;2022-11-20T20:14:06;100234.19;;;2.45;81.15
17781;BME280;8498;52.516;13.790;2022-11-20T20:19:28;100223.91;;;2.18;81.95
17781;BME280;8498;52.516;13.790;2022-11-20T20:24:51;100228.06;;;2.24;81.46
17781;BME280;8498;52.516;13.790;2022-11-20T20:30:13;100216.72;;;2.24;81.50
17781;BME280;8498;52.516;13.790;2022-11-20T20:35:41;100220.84;;;2.29;81.46
17781;BME280;8498;52.516;13.790;2022-11-20T20:41:03;100218.06;;;2.34;80.87
17781;BME280;8498;52.516;13.790;2022-11-20T20:46:26;100216.34;;;2.33;80.45
17781;BME280;8498;52.516;13.790;2022-11-20T20:51:48;100211.91;;;2.35;81.03
17781;BME280;8498;52.516;13.790;2022-11-20T20:57:10;100216.16;;;2.37;81.18
17781;BME280;8498;52.516;13.790;2022-11-20T21:02:34;100214.50;;;2.35;80.65
17781;BME280;8498;52.516;13.790;2022-11-20T21:07:56;100200.63;;;2.33;80.74
17781;BME280;8498;52.516;13.790;2022-11-20T21:13:38;100185.66;;;2.14;80.02
17781;BME280;8498;52.516;13.790;2022-11-20T21:19:01;100187.28;;;1.97;79.78
17781;BME280;8498;52.516;13.790;2022-11-20T21:29:49;100175.06;;;1.75;79.69
17781;BME280;8498;52.516;13.790;2022-11-20T21:35:12;100169.25;;;1.45;79.98
17781;BME280;8498;52.516;13.790;2022-11-20T21:40:34;100161.75;;;1.36;80.32
17781;BME280;8498;52.516;13.790;2022-11-20T21:46:05;100164.44;;;1.35;80.74
17781;BME280;8498;52.516;13.790;2022-11-20T21:51:28;100153.91;;;1.36;80.17
17781;BME280;8498;52.516;13.790;2022-11-20T21:56:51;100156.66;;;1.33;80.30
17781;BME280;8498;52.516;13.790;2022-11-20T22:02:13;100144.75;;;1.25;80.35
17781;BME280;8498;52.516;13.790;2022-11-20T22:07:36;100151.34;;;1.13;80.82
17781;BME280;8498;52.516;13.790;2022-11-20T22:12:59;100138.25;;;0.90;80.90
17781;BME280;8498;52.516;13.790;2022-11-20T22:18:43;100133.72;;;0.71;80.94
17781;BME280;8498;52.516;13.790;2022-11-20T22:24:06;100139.94;;;0.67;81.81
17781;BME280;8498;52.516;13.790;2022-11-20T22:29:30;100129.78;;;0.60;81.01
17781;BME280;8498;52.516;13.790;2022-11-20T22:34:52;100123.38;;;0.44;81.44
17781;BME280;8498;52.516;13.790;2022-11-20T22:40:15;100116.63;;;0.38;81.14
17781;BME280;8498;52.516;13.790;2022-11-20T22:45:37;100110.69;;;0.33;81.66
17781;BME280;8498;52.516;13.790;2022-11-20T22:51:08;100122.22;;;0.27;81.12
17781;BME280;8498;52.516;13.790;2022-11-20T22:56:32;100121.47;;;0.24;81.08
17781;BME280;8498;52.516;13.790;2022-11-20T23:01:54;100112.25;;;0.14;81.20
17781;BME280;8498;52.516;13.790;2022-11-20T23:07:16;100093.63;;;-0.01;81.34
17781;BME280;8498;52.516;13.790;2022-11-20T23:12:39;100091.00;;;-0.01;81.73
17781;BME280;8498;52.516;13.790;2022-11-20T23:18:01;100085.59;;;0.04;81.63
17781;BME280;8498;52.516;13.790;2022-11-20T23:23:26;100076.00;;;0.05;81.43
17781;BME280;8498;52.516;13.790;2022-11-20T23:28:48;100087.03;;;0.13;82.01
17781;BME280;8498;52.516;13.790;2022-11-20T23:34:11;100071.03;;;0.22;81.81
17781;BME280;8498;52.516;13.790;2022-11-20T23:39:33;100067.44;;;0.26;82.21
17781;BME280;8498;52.516;13.790;2022-11-20T23:44:56;100058.41;;;0.34;81.94
17781;BME280;8498;52.516;13.790;2022-11-20T23:50:18;100052.03;;;0.42;82.53
17781;BME280;8498;52.516;13.790;2022-11-20T23:55:47;100050.28;;;0.42;82.72
